Time;durP1;ratioP1;P1;durP2;ratioP2;P2;SDS_P1;SDS_P2;PMS_P1;PMS_P2;Temp;Humidity;BMP_temperature;BMP_pressure;BME280_temperature;BME280_humidity;BME280_pressure;Samples;Min_cycle;Max_cycle;Signal;HPM_P1;HPM_P2
2023/08/16 00:01:12;;;;;;;11.27;10.38;;;12.00;99.90;;;;;;4921107;29;20482;-77
2023/08/16 00:03:41;;;;;;;14.10;12.70;;;12.10;99.90;;;;;;4936716;28;20047;-77
2023/08/16 00:06:14;;;;;;;15.05;13.65;;;12.10;99.90;;;;;;4939905;28;20042;-77
2023/08/16 00:08:43;;;;;;;14.45;13.10;;;12.00;99.90;;;;;;4972385;28;20051;-76
2023/08/16 00:11:10;;;;;;;14.27;12.88;;;12.10;99.90;;;;;;4971748;28;20109;-77
2023/08/16 00:13:36;;;;;;;10.73;9.82;;;12.10;99.90;;;;;;4954492;28;20043;-77
2023/08/16 00:16:04;;;;;;;10.93;10.02;;;12.00;99.90;;;;;;4954714;28;20474;-76
2023/08/16 00:18:31;;;;;;;12.55;11.38;;;12.00;99.90;;;;;;4939846;28;20067;-77
2023/08/16 00:21:00;;;;;;;11.90;10.77;;;11.90;99.90;;;;;;4939735;28;20053;-77
2023/08/16 00:23:26;;;;;;;14.23;12.93;;;11.90;99.90;;;;;;4939254;28;20470;-76
2023/08/16 00:25:52;;;;;;;15.32;13.82;;;11.90;99.90;;;;;;4939258;28;20070;-77
2023/08/16 00:28:17;;;;;;;18.30;16.50;;;11.80;99.90;;;;;;4955966;28;20078;-76
2023/08/16 00:30:43;;;;;;;12.13;11.13;;;11.80;99.90;;;;;;4955515;28;20067;-77
2023/08/16 00:33:09;;;;;;;14.40;13.18;;;11.80;99.90;;;;;;4955302;28;20054;-76
2023/08/16 00:35:35;;;;;;;12.93;11.93;;;11.80;99.90;;;;;;4942896;28;20125;-76
2023/08/16 00:38:03;;;;;;;10.20;9.40;;;11.70;99.90;;;;;;4959416;28;20045;-77
2023/08/16 00:40:32;;;;;;;15.60;14.07;;;11.80;99.90;;;;;;4959712;28;20042;-77
2023/08/16 00:43:00;;;;;;;14.90;13.35;;;11.70;99.90;;;;;;4956506;28;20042;-76
2023/08/16 00:45:26;;;;;;;14.85;13.32;;;11.70;99.90;;;;;;4934335;28;20043;-77
2023/08/16 00:47:52;;;;;;;13.68;12.27;;;11.70;99.90;;;;;;4959259;28;20053;-76
2023/08/16 00:50:27;;;;;;;12.57;11.45;;;11.70;99.90;;;;;;4959231;28;20050;-76
2023/08/16 00:52:58;;;;;;;10.70;9.70;;;11.60;99.90;;;;;;4958561;28;20110;-77
2023/08/16 00:55:24;;;;;;;12.77;11.68;;;11.60;99.90;;;;;;4945553;28;20051;-76
2023/08/16 00:57:50;;;;;;;13.15;12.02;;;11.60;99.90;;;;;;4978049;28;20397;-76
2023/08/16 01:00:18;;;;;;;15.20;13.80;;;11.60;99.90;;;;;;4978495;28;20046;-77
2023/08/16 01:02:53;;;;;;;12.57;11.27;;;11.50;99.90;;;;;;4969733;28;20393;-78
2023/08/16 01:05:23;;;;;;;16.30;14.18;;;11.50;99.90;;;;;;4958350;28;20043;-77
2023/08/16 01:07:50;;;;;;;12.45;11.35;;;11.50;99.90;;;;;;4955690;29;20054;-77
2023/08/16 01:10:15;;;;;;;11.35;10.30;;;11.50;99.90;;;;;;4939704;29;20059;-77
2023/08/16 01:12:52;;;;;;;10.48;9.48;;;11.50;99.90;;;;;;4941839;28;20034;-77
2023/08/16 01:15:32;;;;;;;12.25;10.90;;;11.50;99.90;;;;;;4942992;28;20042;-77
2023/08/16 01:18:02;;;;;;;12.77;11.70;;;11.40;99.90;;;;;;4943048;28;20489;-76
2023/08/16 01:20:35;;;;;;;13.10;11.90;;;11.40;99.90;;;;;;4942026;28;20091;-77
2023/08/16 01:23:29;;;;;;;14.57;13.25;;;11.40;99.90;;;;;;4958544;28;20057;-77
2023/08/16 01:26:23;;;;;;;13.07;11.88;;;11.40;99.90;;;;;;4949025;28;20112;-77
2023/08/16 01:28:52;;;;;;;12.57;11.45;;;11.40;99.90;;;;;;4978007;28;20038;-77
2023/08/16 01:31:21;;;;;;;11.10;10.05;;;11.30;99.90;;;;;;4968584;28;20047;-77
2023/08/16 01:33:47;;;;;;;12.23;11.13;;;11.30;99.90;;;;;;4942408;28;20145;-78
2023/08/16 01:36:13;;;;;;;11.38;10.40;;;11.30;99.90;;;;;;4941513;28;20600;-77
2023/08/16 01:38:39;;;;;;;14.38;13.15;;;11.30;99.90;;;;;;4957536;28;20046;-77
2023/08/16 01:41:28;;;;;;;19.98;17.80;;;11.30;99.90;;;;;;4943161;28;20489;-77
2023/08/16 01:43:55;;;;;;;12.20;11.20;;;11.30;99.90;;;;;;4957256;28;20045;-78
2023/08/16 01:46:28;;;;;;;11.55;10.45;;;11.30;99.90;;;;;;4947845;28;20120;-77
2023/08/16 01:48:56;;;;;;;14.02;12.82;;;11.30;99.90;;;;;;4957971;28;20101;-77
2023/08/16 01:51:25;;;;;;;13.77;12.55;;;11.30;99.90;;;;;;4974304;28;20043;-77
2023/08/16 01:53:55;;;;;;;15.43;13.80;;;11.30;99.90;;;;;;4951809;28;20053;-79
2023/08/16 01:56:21;;;;;;;17.45;15.63;;;11.30;99.90;;;;;;4978323;28;20041;-76
2023/08/16 01:58:52;;;;;;;14.63;13.23;;;11.20;99.90;;;;;;4978614;28;20042;-76
2023/08/16 02:01:18;;;;;;;13.23;12.02;;;11.20;99.90;;;;;;4959201;28;20116;-77
2023/08/16 02:03:47;;;;;;;13.65;12.48;;;11.20;99.90;;;;;;4959277;28;20283;-76
2023/08/16 02:06:15;;;;;;;14.95;13.43;;;11.20;99.90;;;;;;4966411;28;20031;-76
2023/08/16 02:08:49;;;;;;;11.80;10.73;;;11.20;99.90;;;;;;4977689;28;20182;-77
2023/08/16 02:11:21;;;;;;;11.75;10.85;;;11.10;99.90;;;;;;4978113;28;20046;-76
2023/08/16 02:13:49;;;;;;;12.95;11.65;;;11.10;99.90;;;;;;4961971;28;20118;-77
2023/08/16 02:16:15;;;;;;;13.38;12.20;;;11.10;99.90;;;;;;4956107;28;20453;-78
2023/08/16 02:18:46;;;;;;;13.60;12.50;;;11.10;99.90;;;;;;4978377;28;20137;-76
2023/08/16 02:21:16;;;;;;;14.07;12.85;;;11.00;99.90;;;;;;4965836;28;20043;-76
2023/08/16 02:23:49;;;;;;;14.50;13.20;;;11.00;99.90;;;;;;4958952;28;20047;-76
2023/08/16 02:26:17;;;;;;;11.20;10.20;;;11.00;99.90;;;;;;4976769;28;20038;-77
2023/08/16 02:28:46;;;;;;;13.00;11.77;;;11.10;99.90;;;;;;4979246;28;20039;-77
2023/08/16 02:31:16;;;;;;;13.68;12.32;;;11.00;99.90;;;;;;4963830;28;20556;-76
2023/08/16 02:33:45;;;;;;;12.95;11.77;;;11.00;99.90;;;;;;4965667;28;20125;-76
2023/08/16 02:36:16;;;;;;;18.27;16.38;;;11.00;99.90;;;;;;4937994;28;20042;-76
2023/08/16 02:38:55;;;;;;;14.95;13.55;;;10.90;99.90;;;;;;4996507;28;20046;-76
2023/08/16 02:41:22;;;;;;;21.70;16.52;;;11.00;99.90;;;;;;4979774;28;20420;-77
2023/08/16 02:43:51;;;;;;;21.25;18.60;;;10.90;99.90;;;;;;4963422;28;20046;-76
2023/08/16 02:46:20;;;;;;;19.15;15.02;;;10.90;99.90;;;;;;4945382;28;20054;-77
2023/08/16 02:48:49;;;;;;;22.80;18.20;;;10.90;99.90;;;;;;4981927;28;20077;-76
2023/08/16 02:51:17;;;;;;;15.73;14.32;;;10.90;99.90;;;;;;4943894;28;20047;-76
2023/08/16 02:53:48;;;;;;;17.35;15.80;;;10.90;99.90;;;;;;4926294;28;20524;-76
2023/08/16 02:56:14;;;;;;;15.10;13.85;;;10.90;99.90;;;;;;4974966;28;20409;-76
2023/08/16 02:58:40;;;;;;;15.10;13.93;;;11.00;99.90;;;;;;4977880;28;20042;-77
2023/08/16 03:01:06;;;;;;;16.92;15.38;;;11.00;99.90;;;;;;4977952;28;20101;-77
2023/08/16 03:03:40;;;;;;;20.65;18.50;;;11.00;99.90;;;;;;4961095;28;20053;-76
2023/08/16 03:06:12;;;;;;;17.30;15.80;;;11.00;99.90;;;;;;4920832;28;20039;-78
2023/08/16 03:08:43;;;;;;;13.85;12.65;;;11.10;99.90;;;;;;4955393;28;20041;-77
2023/08/16 03:11:12;;;;;;;19.15;17.08;;;11.20;99.90;;;;;;4958082;28;20043;-77
2023/08/16 03:13:39;;;;;;;37.22;24.48;;;11.20;99.90;;;;;;4955610;28;20097;-77
2023/08/16 03:16:10;;;;;;;16.45;15.00;;;11.10;99.90;;;;;;4989877;28;20046;-77
2023/08/16 03:18:39;;;;;;;18.92;17.25;;;11.20;99.90;;;;;;4977721;28;20512;-77
2023/08/16 03:21:10;;;;;;;35.42;24.80;;;11.20;99.90;;;;;;4977131;28;20042;-76
2023/08/16 03:23:37;;;;;;;19.67;17.88;;;11.30;99.90;;;;;;4941876;28;20038;-76
2023/08/16 03:26:03;;;;;;;17.58;16.05;;;11.30;99.90;;;;;;4972423;28;20050;-76
2023/08/16 03:28:31;;;;;;;16.73;15.32;;;11.30;99.90;;;;;;4955880;28;20043;-77
2023/08/16 03:31:11;;;;;;;18.23;16.60;;;11.30;99.90;;;;;;4957081;28;20102;-76
2023/08/16 03:33:38;;;;;;;22.85;20.45;;;11.30;99.90;;;;;;4956261;28;20448;-76
2023/08/16 03:36:04;;;;;;;29.23;21.02;;;11.30;99.90;;;;;;4971336;28;20133;-76
2023/08/16 03:38:30;;;;;;;20.30;18.30;;;11.30;99.90;;;;;;4975519;28;20049;-76
2023/08/16 03:41:02;;;;;;;17.95;16.48;;;11.40;99.90;;;;;;4991175;28;20061;-76
2023/08/16 03:43:31;;;;;;;14.23;13.00;;;11.40;99.90;;;;;;4973813;28;20051;-77
2023/08/16 03:46:00;;;;;;;18.85;17.05;;;11.40;99.90;;;;;;4959112;28;20054;-76
2023/08/16 03:48:28;;;;;;;18.60;16.67;;;11.40;99.90;;;;;;4947901;28;20057;-77
2023/08/16 03:51:05;;;;;;;16.42;14.85;;;11.40;99.90;;;;;;4956011;28;20476;-77
2023/08/16 03:53:36;;;;;;;14.80;13.48;;;11.40;99.90;;;;;;4958091;28;20041;-77
2023/08/16 03:56:02;;;;;;;16.67;15.18;;;11.30;99.90;;;;;;4975605;28;20069;-77
2023/08/16 03:58:33;;;;;;;16.35;14.82;;;11.30;99.90;;;;;;4980626;28;20042;-76
2023/08/16 04:01:02;;;;;;;15.15;13.75;;;11.30;99.90;;;;;;4964917;28;20053;-77
2023/08/16 04:03:35;;;;;;;16.77;15.07;;;11.30;99.90;;;;;;4963463;28;20046;-76
2023/08/16 04:06:01;;;;;;;16.88;15.23;;;11.20;99.90;;;;;;4942416;28;20050;-76
2023/08/16 04:08:30;;;;;;;14.88;13.52;;;11.20;99.90;;;;;;4979371;28;20285;-76
2023/08/16 04:11:08;;;;;;;15.68;14.25;;;11.20;99.90;;;;;;4964689;28;20043;-77
2023/08/16 04:13:43;;;;;;;15.15;13.70;;;11.10;99.90;;;;;;4943254;28;20074;-78
2023/08/16 04:16:11;;;;;;;18.08;14.85;;;11.10;99.90;;;;;;4951882;28;20117;-77
2023/08/16 04:18:40;;;;;;;23.33;19.08;;;11.10;99.90;;;;;;4980201;28;20137;-76
2023/08/16 04:21:06;;;;;;;22.13;18.83;;;11.10;99.90;;;;;;4979923;28;20057;-77
2023/08/16 04:23:36;;;;;;;18.52;16.67;;;11.10;99.90;;;;;;4969432;28;20043;-77
2023/08/16 04:26:02;;;;;;;14.32;13.02;;;11.10;99.90;;;;;;4948633;28;20104;-77
2023/08/16 04:28:31;;;;;;;21.20;18.80;;;11.00;99.90;;;;;;4979809;28;20093;-77
2023/08/16 04:31:01;;;;;;;16.75;15.25;;;11.00;99.90;;;;;;4979729;28;20132;-76
2023/08/16 04:33:29;;;;;;;16.33;14.82;;;11.00;99.90;;;;;;4970284;28;20043;-77
2023/08/16 04:36:00;;;;;;;27.85;19.85;;;11.00;99.90;;;;;;4967315;28;20046;-76
2023/08/16 04:38:26;;;;;;;15.80;14.30;;;10.90;99.90;;;;;;4979285;28;20575;-77
2023/08/16 04:40:55;;;;;;;16.35;14.63;;;11.00;99.90;;;;;;4979211;28;20054;-76
2023/08/16 04:43:26;;;;;;;16.08;14.68;;;11.00;99.90;;;;;;4970203;28;20113;-77
2023/08/16 04:45:52;;;;;;;18.23;16.50;;;11.00;99.90;;;;;;4967720;28;20038;-77
2023/08/16 04:48:20;;;;;;;16.63;15.23;;;11.00;99.90;;;;;;4961894;28;20217;-77
2023/08/16 04:50:46;;;;;;;13.52;12.32;;;10.90;99.90;;;;;;4959795;28;20038;-77
2023/08/16 04:53:12;;;;;;;24.80;19.83;;;11.00;99.90;;;;;;4957667;28;20509;-77
2023/08/16 04:55:38;;;;;;;26.25;22.25;;;11.00;99.90;;;;;;4962641;28;20042;-76
2023/08/16 04:58:04;;;;;;;19.55;17.65;;;11.00;99.90;;;;;;4971167;28;20041;-76
2023/08/16 05:00:30;;;;;;;20.38;17.63;;;11.00;99.90;;;;;;4975601;28;20125;-77
2023/08/16 05:02:58;;;;;;;14.82;13.52;;;11.00;99.90;;;;;;4966534;28;20043;-76
2023/08/16 05:05:24;;;;;;;20.13;18.00;;;11.00;99.90;;;;;;4948316;28;20042;-76
2023/08/16 05:07:53;;;;;;;17.80;16.20;;;11.00;99.90;;;;;;4975789;28;20084;-76
2023/08/16 05:10:22;;;;;;;14.88;13.57;;;11.20;99.90;;;;;;4975598;28;20054;-78
2023/08/16 05:12:48;;;;;;;18.45;16.55;;;11.20;99.90;;;;;;4969940;28;20039;-78
2023/08/16 05:15:24;;;;;;;23.73;20.75;;;11.30;99.90;;;;;;4940386;28;20049;-78
2023/08/16 05:17:49;;;;;;;19.88;17.98;;;11.30;99.90;;;;;;4987509;28;20046;-76
2023/08/16 05:20:15;;;;;;;18.70;16.83;;;11.40;99.90;;;;;;4959676;28;20232;-76
2023/08/16 05:22:41;;;;;;;29.55;24.42;;;11.40;99.90;;;;;;4960786;28;20054;-76
2023/08/16 05:25:07;;;;;;;18.30;16.70;;;11.50;99.90;;;;;;4990434;28;20130;-77
2023/08/16 05:27:33;;;;;;;35.42;26.27;;;11.60;99.90;;;;;;4953577;28;20119;-76
2023/08/16 05:29:59;;;;;;;39.55;28.52;;;11.60;99.90;;;;;;4962095;28;20056;-77
2023/08/16 05:32:38;;;;;;;21.70;19.70;;;11.70;99.90;;;;;;4961122;28;20039;-76
2023/08/16 05:35:12;;;;;;;18.33;16.73;;;11.80;99.90;;;;;;4980595;28;20034;-77
2023/08/16 05:37:43;;;;;;;41.40;28.55;;;11.90;99.90;;;;;;4966617;28;20046;-76
2023/08/16 05:40:10;;;;;;;28.40;25.05;;;11.90;99.90;;;;;;4981643;28;20504;-77
2023/08/16 05:42:38;;;;;;;26.60;23.38;;;12.10;99.90;;;;;;4979226;28;20096;-76
2023/08/16 05:45:04;;;;;;;38.70;27.38;;;12.20;99.90;;;;;;4976673;28;20074;-77
2023/08/16 05:47:30;;;;;;;68.70;37.38;;;12.30;99.90;;;;;;4943883;28;20121;-78
2023/08/16 05:49:57;;;;;;;41.40;32.13;;;12.50;99.90;;;;;;4971654;28;20045;-77
2023/08/16 05:52:23;;;;;;;55.25;34.80;;;12.60;99.90;;;;;;4997726;28;20048;-77
2023/08/16 05:54:49;;;;;;;30.05;27.08;;;12.70;99.90;;;;;;4968213;28;20117;-77
2023/08/16 05:57:15;;;;;;;35.10;30.42;;;12.80;99.90;;;;;;4942774;28;20035;-77
2023/08/16 05:59:43;;;;;;;33.80;30.40;;;13.00;99.90;;;;;;4962957;28;20405;-78
2023/08/16 06:02:17;;;;;;;30.33;27.33;;;13.00;99.90;;;;;;4973123;28;20042;-77
2023/08/16 06:04:43;;;;;;;33.92;29.48;;;13.20;99.90;;;;;;4978922;28;20038;-77
2023/08/16 06:07:11;;;;;;;32.67;29.25;;;13.30;99.90;;;;;;4952519;28;20039;-76
2023/08/16 06:09:42;;;;;;;48.17;35.38;;;13.40;99.90;;;;;;4982047;28;20054;-77
2023/08/16 06:12:08;;;;;;;30.40;27.35;;;13.50;99.90;;;;;;4982260;28;20145;-77
2023/08/16 06:14:36;;;;;;;33.03;28.85;;;13.60;99.90;;;;;;4980696;28;20501;-77
2023/08/16 06:17:04;;;;;;;30.15;27.20;;;13.80;99.90;;;;;;4961567;28;20098;-77
2023/08/16 06:19:30;;;;;;;32.72;29.48;;;13.80;99.90;;;;;;4956914;28;20122;-77
2023/08/16 06:21:58;;;;;;;43.25;35.35;;;13.90;99.90;;;;;;4980996;28;20482;-76
2023/08/16 06:24:27;;;;;;;35.45;31.95;;;14.10;99.90;;;;;;4980541;28;20051;-77
2023/08/16 06:26:53;;;;;;;30.52;27.65;;;14.10;99.90;;;;;;4961251;28;20049;-77
2023/08/16 06:29:19;;;;;;;36.97;32.97;;;14.30;99.90;;;;;;4971444;28;20042;-76
2023/08/16 06:31:48;;;;;;;31.88;28.70;;;14.40;99.90;;;;;;4981574;28;20035;-77
2023/08/16 06:34:14;;;;;;;33.67;30.13;;;14.50;99.90;;;;;;4980661;28;20046;-78
2023/08/16 06:36:46;;;;;;;26.90;24.55;;;14.70;99.90;;;;;;4962789;28;20194;-77
2023/08/16 06:39:21;;;;;;;29.52;26.58;;;14.80;99.90;;;;;;4971057;28;20050;-77
2023/08/16 06:41:56;;;;;;;32.33;29.20;;;15.00;99.90;;;;;;4981303;28;20513;-77
2023/08/16 06:44:37;;;;;;;24.00;21.73;;;15.10;99.90;;;;;;4981877;28;20038;-78
2023/08/16 06:47:04;;;;;;;25.38;22.77;;;15.20;99.90;;;;;;4959869;28;20043;-78
2023/08/16 06:49:32;;;;;;;23.67;21.33;;;15.30;99.90;;;;;;4947252;28;20042;-77
2023/08/16 06:52:07;;;;;;;23.58;21.38;;;15.50;99.90;;;;;;4954494;28;20105;-78
2023/08/16 06:54:33;;;;;;;22.63;20.48;;;15.50;99.90;;;;;;4949697;28;20401;-77
2023/08/16 06:56:59;;;;;;;21.85;19.85;;;15.70;99.90;;;;;;4961231;28;20059;-78
2023/08/16 06:59:28;;;;;;;23.40;20.90;;;15.80;99.90;;;;;;4959011;28;20042;-77
2023/08/16 07:02:10;;;;;;;21.73;19.77;;;15.90;99.90;;;;;;4957991;28;20090;-77
2023/08/16 07:04:52;;;;;;;20.83;18.92;;;16.10;99.90;;;;;;4940454;28;20046;-77
2023/08/16 07:07:27;;;;;;;18.98;17.20;;;16.20;99.90;;;;;;4954590;28;20134;-78
2023/08/16 07:10:04;;;;;;;19.38;17.38;;;16.30;99.90;;;;;;4947878;28;20205;-79
2023/08/16 07:12:33;;;;;;;16.67;15.25;;;16.40;99.90;;;;;;4970244;28;20105;-77
2023/08/16 07:15:17;;;;;;;17.15;15.55;;;16.50;99.90;;;;;;4956223;28;20046;-77
2023/08/16 07:17:48;;;;;;;17.67;15.98;;;16.60;99.90;;;;;;4937073;28;20042;-77
2023/08/16 07:20:18;;;;;;;19.88;17.90;;;16.70;99.90;;;;;;4962886;28;20204;-77
2023/08/16 07:22:49;;;;;;;21.48;19.35;;;16.80;99.90;;;;;;4938676;28;20035;-77
2023/08/16 07:25:26;;;;;;;20.25;18.35;;;16.90;99.90;;;;;;4967916;28;20129;-77
2023/08/16 07:28:07;;;;;;;19.52;17.63;;;16.80;99.90;;;;;;4972735;28;20137;-78
2023/08/16 07:30:42;;;;;;;18.27;16.65;;;17.00;99.90;;;;;;4947053;28;20047;-80
2023/08/16 07:33:13;;;;;;;15.10;13.68;;;17.10;99.90;;;;;;4975572;28;20114;-78
2023/08/16 07:35:58;;;;;;;13.82;12.43;;;17.20;99.90;;;;;;4975670;28;20129;-80
2023/08/16 07:38:34;;;;;;;12.20;9.93;;;17.40;99.90;;;;;;4969810;28;20510;-78
2023/08/16 07:41:27;;;;;;;10.32;9.05;;;17.50;99.90;;;;;;4954389;28;20057;-79
2023/08/16 07:44:03;;;;;;;10.65;9.57;;;17.60;99.90;;;;;;4944116;28;20047;-76
2023/08/16 07:46:38;;;;;;;10.05;7.78;;;17.80;99.90;;;;;;4939696;28;20121;-78
2023/08/16 07:49:12;;;;;;;9.15;6.20;;;17.90;99.90;;;;;;4935691;28;20569;-77
2023/08/16 07:51:40;;;;;;;7.88;6.72;;;18.00;99.90;;;;;;4948691;28;20125;-76
2023/08/16 07:54:21;;;;;;;8.38;7.18;;;18.10;99.90;;;;;;4978642;28;20038;-81
2023/08/16 07:56:50;;;;;;;11.02;6.13;;;18.10;99.90;;;;;;4958930;28;20386;-79
2023/08/16 07:59:23;;;;;;;8.70;6.78;;;18.10;99.90;;;;;;4959191;28;20042;-78
2023/08/16 08:02:05;;;;;;;7.28;6.50;;;18.10;99.90;;;;;;4957793;28;20035;-79
2023/08/16 08:04:38;;;;;;;10.45;5.75;;;18.10;99.90;;;;;;4958553;28;20038;-78
2023/08/16 08:07:11;;;;;;;7.65;4.93;;;18.10;99.90;;;;;;4956449;28;20394;-78
2023/08/16 08:09:45;;;;;;;8.45;4.50;;;18.10;99.90;;;;;;4970854;28;20051;-78
2023/08/16 08:12:23;;;;;;;5.63;3.78;;;18.20;99.90;;;;;;4939801;28;20401;-78
2023/08/16 08:14:57;;;;;;;7.28;3.40;;;18.50;99.90;;;;;;4939837;28;20030;-78
2023/08/16 08:17:25;;;;;;;5.13;3.30;;;18.60;99.90;;;;;;4940148;28;20070;-78
2023/08/16 08:19:54;;;;;;;6.95;3.40;;;18.70;99.90;;;;;;4941362;28;20078;-78
2023/08/16 08:22:32;;;;;;;4.53;3.75;;;18.80;99.90;;;;;;4954216;28;20054;-78
2023/08/16 08:24:58;;;;;;;5.90;3.50;;;18.90;99.90;;;;;;4977624;28;20077;-78
2023/08/16 08:27:26;;;;;;;5.00;2.95;;;19.00;99.90;;;;;;4967826;28;20173;-78
2023/08/16 08:29:55;;;;;;;5.95;2.72;;;19.30;99.90;;;;;;4951327;28;20057;-77
2023/08/16 08:32:24;;;;;;;5.07;2.58;;;20.10;99.90;;;;;;4953936;28;20050;-77
2023/08/16 08:34:57;;;;;;;6.78;2.42;;;20.90;99.90;;;;;;4967629;28;20034;-79
2023/08/16 08:37:27;;;;;;;3.55;2.10;;;21.60;99.90;;;;;;4942877;28;20517;-79
2023/08/16 08:40:07;;;;;;;5.35;2.35;;;22.30;99.90;;;;;;4941247;28;20047;-79
2023/08/16 08:42:37;;;;;;;4.13;1.60;;;22.80;99.90;;;;;;4936058;28;20126;-79
2023/08/16 08:45:05;;;;;;;3.88;1.92;;;23.30;99.90;;;;;;4971885;28;20057;-79
2023/08/16 08:47:44;;;;;;;3.40;1.90;;;23.70;99.90;;;;;;4942174;28;20050;-81
2023/08/16 08:50:15;;;;;;;5.68;1.70;;;24.10;99.90;;;;;;4951407;28;20043;-82
2023/08/16 08:53:00;;;;;;;3.63;1.33;;;24.30;99.90;;;;;;4946151;28;20043;-80
2023/08/16 08:55:37;;;;;;;3.60;1.55;;;24.30;99.90;;;;;;4982772;28;20113;-80
2023/08/16 08:58:04;;;;;;;3.15;1.60;;;24.10;99.90;;;;;;4972182;28;20042;-79
2023/08/16 09:00:39;;;;;;;4.95;1.77;;;23.70;99.90;;;;;;4968954;28;20035;-79
2023/08/16 09:03:08;;;;;;;4.53;1.52;;;23.30;99.90;;;;;;4978473;28;20054;-80
2023/08/16 09:05:39;;;;;;;3.35;1.38;;;23.00;99.90;;;;;;4964362;28;20134;-80
2023/08/16 09:08:13;;;;;;;2.22;1.42;;;22.70;99.90;;;;;;4964970;28;20038;-80
2023/08/16 09:10:46;;;;;;;5.05;1.90;;;22.60;99.90;;;;;;4955485;28;20038;-80
2023/08/16 09:13:12;;;;;;;3.88;1.60;;;22.60;99.90;;;;;;4972612;28;20030;-81
2023/08/16 09:15:41;;;;;;;4.03;1.80;;;22.60;99.90;;;;;;4962848;28;20125;-81
2023/08/16 09:18:13;;;;;;;3.13;1.50;;;22.90;99.90;;;;;;4963006;28;20132;-80
2023/08/16 09:20:44;;;;;;;4.07;1.60;;;23.10;99.90;;;;;;4963341;28;20046;-81
2023/08/16 09:23:26;;;;;;;2.85;1.60;;;23.40;99.90;;;;;;4967639;28;20043;-78
2023/08/16 09:25:58;;;;;;;2.60;1.67;;;24.00;99.90;;;;;;4951095;28;20031;-80
2023/08/16 09:28:34;;;;;;;5.07;2.00;;;24.40;99.90;;;;;;4947178;28;20105;-79
2023/08/16 09:31:09;;;;;;;3.38;1.80;;;24.70;99.90;;;;;;4958198;28;20050;-80
2023/08/16 09:33:35;;;;;;;3.88;1.88;;;24.70;99.90;;;;;;4956513;28;20485;-78
2023/08/16 09:36:04;;;;;;;3.50;1.70;;;24.40;99.90;;;;;;4960556;28;20034;-79
2023/08/16 09:38:34;;;;;;;3.33;1.50;;;24.30;99.90;;;;;;4942394;28;20485;-79
2023/08/16 09:41:02;;;;;;;3.25;1.60;;;24.30;99.90;;;;;;4939533;28;20085;-79
2023/08/16 09:43:33;;;;;;;4.28;1.50;;;24.30;99.90;;;;;;4945217;28;20046;-79
2023/08/16 09:45:59;;;;;;;4.35;1.40;;;24.60;99.90;;;;;;4944626;28;20046;-80
2023/08/16 09:48:30;;;;;;;3.15;1.40;;;25.00;99.90;;;;;;4958444;28;20497;-79
2023/08/16 09:51:03;;;;;;;2.97;1.60;;;25.20;96.00;;;;;;4957010;28;20035;-79
2023/08/16 09:53:30;;;;;;;4.25;2.20;;;24.80;95.40;;;;;;4960167;28;20054;-79
2023/08/16 09:56:00;;;;;;;5.68;2.22;;;24.40;99.90;;;;;;4944963;28;21101;-79
2023/08/16 09:58:29;;;;;;;2.42;1.50;;;24.50;99.90;;;;;;4958930;28;20039;-79
2023/08/16 10:00:58;;;;;;;3.33;1.70;;;24.80;99.90;;;;;;4957806;28;20104;-78
2023/08/16 10:03:24;;;;;;;2.05;1.30;;;25.30;94.90;;;;;;4957613;28;20408;-79
2023/08/16 10:05:53;;;;;;;3.10;1.20;;;25.40;99.00;;;;;;4956065;28;20169;-79
2023/08/16 10:08:23;;;;;;;4.18;1.30;;;25.60;73.10;;;;;;4944212;28;20387;-79
2023/08/16 10:10:54;;;;;;;1.83;1.25;;;25.40;78.20;;;;;;4957095;28;20039;-79
2023/08/16 10:13:23;;;;;;;1.45;0.98;;;25.40;93.00;;;;;;4959164;28;20173;-79
2023/08/16 10:15:50;;;;;;;2.78;1.48;;;25.60;90.10;;;;;;4961344;28;20035;-79
2023/08/16 10:18:19;;;;;;;3.17;1.00;;;25.90;72.50;;;;;;4960872;28;20045;-78
2023/08/16 10:20:53;;;;;;;2.42;0.93;;;25.90;73.80;;;;;;4956822;28;20054;-78
2023/08/16 10:23:20;;;;;;;2.65;1.20;;;26.00;73.00;;;;;;4942823;28;20046;-79
2023/08/16 10:25:48;;;;;;;2.47;0.90;;;26.20;69.30;;;;;;4959667;28;20081;-78
2023/08/16 10:28:15;;;;;;;1.80;0.80;;;26.10;77.40;;;;;;4944183;28;20061;-78
2023/08/16 10:30:44;;;;;;;3.85;1.00;;;26.40;72.20;;;;;;4942138;28;20097;-80
2023/08/16 10:33:16;;;;;;;2.15;1.00;;;26.60;69.60;;;;;;4942009;28;20401;-79
2023/08/16 10:35:43;;;;;;;4.30;1.20;;;26.60;75.60;;;;;;4962068;28;20042;-79
2023/08/16 10:38:10;;;;;;;2.13;0.88;;;26.80;68.90;;;;;;4963595;28;20065;-79
2023/08/16 10:40:36;;;;;;;2.40;1.05;;;26.80;70.80;;;;;;4945541;28;20035;-79
2023/08/16 10:43:06;;;;;;;2.15;0.80;;;27.00;71.00;;;;;;4947411;28;20112;-81
2023/08/16 10:45:36;;;;;;;1.63;1.00;;;27.30;65.10;;;;;;4981721;28;20080;-79
2023/08/16 10:48:17;;;;;;;2.25;1.00;;;27.30;64.80;;;;;;4961161;28;20575;-80
2023/08/16 10:50:44;;;;;;;2.58;1.20;;;27.00;66.80;;;;;;4955635;28;20043;-80
2023/08/16 10:53:12;;;;;;;2.88;1.08;;;26.80;68.80;;;;;;4937562;28;20043;-80
2023/08/16 10:55:41;;;;;;;1.88;1.00;;;27.00;70.50;;;;;;4945265;28;20101;-80
2023/08/16 10:58:09;;;;;;;4.15;1.30;;;27.20;67.40;;;;;;4963346;28;20043;-80
2023/08/16 11:00:39;;;;;;;1.77;0.90;;;27.30;68.20;;;;;;4958219;28;20089;-79
2023/08/16 11:03:16;;;;;;;1.80;0.90;;;27.40;71.50;;;;;;4961011;28;20052;-81
2023/08/16 11:05:43;;;;;;;2.58;0.77;;;27.80;64.90;;;;;;4944777;28;20094;-79
2023/08/16 11:08:15;;;;;;;2.25;0.90;;;27.80;64.00;;;;;;4943820;28;20035;-80
2023/08/16 11:10:46;;;;;;;1.52;0.70;;;27.60;65.60;;;;;;4956478;28;20034;-80
2023/08/16 11:13:15;;;;;;;1.95;0.82;;;27.50;64.30;;;;;;4944488;28;20122;-81
2023/08/16 11:15:44;;;;;;;1.35;1.00;;;27.30;67.10;;;;;;4944123;28;20042;-78
2023/08/16 11:18:13;;;;;;;3.15;0.90;;;27.60;64.30;;;;;;4942615;28;20125;-79
2023/08/16 11:20:59;;;;;;;1.88;0.93;;;27.60;66.10;;;;;;4942195;28;20042;-81
2023/08/16 11:23:58;;;;;;;2.28;0.80;;;27.60;62.20;;;;;;4943081;28;20046;-78
2023/08/16 11:26:24;;;;;;;1.25;0.75;;;27.40;63.80;;;;;;4941513;28;20418;-78
2023/08/16 11:28:49;;;;;;;3.00;1.10;;;27.40;62.30;;;;;;4942089;28;20038;-78
2023/08/16 11:31:15;;;;;;;2.03;0.80;;;27.40;62.90;;;;;;4940195;28;20671;-77
2023/08/16 11:33:43;;;;;;;0.90;0.80;;;27.50;63.30;;;;;;4940209;28;20026;-77
2023/08/16 11:36:15;;;;;;;2.08;1.10;;;27.40;65.60;;;;;;4958163;28;20125;-76
2023/08/16 11:38:45;;;;;;;2.13;0.90;;;27.60;67.20;;;;;;4940675;28;20565;-80
2023/08/16 11:41:18;;;;;;;1.38;0.70;;;28.00;61.40;;;;;;4941761;28;20532;-81
2023/08/16 11:44:10;;;;;;;2.63;0.95;;;28.00;62.80;;;;;;4963072;28;20043;-80
2023/08/16 11:46:47;;;;;;;1.45;0.75;;;28.20;60.60;;;;;;4979093;28;20050;-80
2023/08/16 11:49:19;;;;;;;1.95;0.93;;;28.20;62.60;;;;;;4963237;28;20061;-78
2023/08/16 11:51:56;;;;;;;1.65;0.90;;;28.10;66.30;;;;;;4957821;28;20497;-79
2023/08/16 11:54:30;;;;;;;1.58;0.80;;;28.40;60.20;;;;;;4963577;28;20065;-79
2023/08/16 11:57:16;;;;;;;2.00;0.82;;;28.20;61.70;;;;;;4959765;28;20050;-80
2023/08/16 12:00:03;;;;;;;2.13;0.80;;;28.20;61.90;;;;;;4970192;28;20042;-79
2023/08/16 12:02:44;;;;;;;2.05;0.80;;;28.50;60.20;;;;;;4956755;28;20501;-80
2023/08/16 12:05:11;;;;;;;3.45;1.00;;;28.60;61.60;;;;;;4945973;28;20081;-79
2023/08/16 12:07:57;;;;;;;1.52;0.80;;;28.70;59.90;;;;;;4979329;28;20497;-79
2023/08/16 12:10:39;;;;;;;2.10;0.95;;;28.70;61.20;;;;;;4962641;28;20091;-79
2023/08/16 12:13:15;;;;;;;2.50;1.02;;;28.70;63.30;;;;;;4980071;28;20108;-79
2023/08/16 12:15:47;;;;;;;2.35;0.90;;;28.90;63.40;;;;;;4974474;28;20037;-79
2023/08/16 12:18:40;;;;;;;3.03;1.25;;;29.10;60.90;;;;;;4962118;28;20070;-79
2023/08/16 12:21:13;;;;;;;1.83;1.15;;;29.20;60.50;;;;;;4963222;28;20078;-81
2023/08/16 12:23:41;;;;;;;2.53;1.00;;;28.80;60.40;;;;;;4956360;28;20064;-78
2023/08/16 12:26:14;;;;;;;3.03;1.08;;;28.20;59.90;;;;;;4961222;28;20042;-79
2023/08/16 12:28:44;;;;;;;1.98;1.20;;;27.20;61.70;;;;;;4981299;28;20046;-79
2023/08/16 12:31:10;;;;;;;1.50;0.90;;;26.70;64.90;;;;;;4967282;28;20197;-80
2023/08/16 12:33:36;;;;;;;3.65;1.00;;;26.80;64.60;;;;;;4964364;28;20053;-79
2023/08/16 12:36:05;;;;;;;3.53;1.00;;;26.70;65.30;;;;;;4968766;28;20057;-79
2023/08/16 12:38:31;;;;;;;4.95;1.13;;;26.90;65.20;;;;;;4983773;28;20358;-80
2023/08/16 12:40:57;;;;;;;2.75;1.00;;;27.20;67.30;;;;;;4984531;28;20129;-79
2023/08/16 12:43:33;;;;;;;3.50;1.10;;;27.70;64.40;;;;;;4962323;28;20043;-80
2023/08/16 12:46:02;;;;;;;2.53;0.85;;;28.00;61.80;;;;;;4970252;28;20049;-79
2023/08/16 12:48:34;;;;;;;3.17;0.80;;;28.10;65.30;;;;;;4986544;28;20046;-79
2023/08/16 12:51:10;;;;;;;2.35;0.88;;;28.30;63.30;;;;;;4975716;28;20046;-78
2023/08/16 12:53:38;;;;;;;2.92;1.10;;;28.60;63.60;;;;;;4970979;28;20034;-79